Newport, New York
Current Conditions -  °F | °C
As of 3:53 AM on Friday 31 Oct 2014 (Local Time) from KRME Reporting Station
Clear Clear  
Wind Chill: 31°   Ceiling: Unl
Heat Index: 31°   Visibility: 10mi
Dew Point: 29°   Wind: 3mph
Humidity: 92%   Direction: 100°E
Pressure: 30.03"   Gusts: NA
Location:  43.19°N, 75.01°W
Report Text: KRME 310753Z AUTO 10003KT 10SM CLR M01/M02 A3003 RMK AO2 SLP173 T10061017
Loading
Personal Weather Stations






























Interactive Weather Map
Tropical Storm Tracking
New forecast layout! Learn more

10-Day Weather Forecast

Advertisements
Track Severe Weather on mobile